createdAt,value
2022-09-02T03:29:47.806Z,68.10
2022-09-02T03:32:14.862Z,68.60
2022-09-02T03:34:42.113Z,68.60
2022-09-02T03:37:08.543Z,68.80
2022-09-02T03:39:35.001Z,69.20
2022-09-02T03:42:01.464Z,68.40
2022-09-02T03:44:28.078Z,70.10
2022-09-02T03:46:54.552Z,68.50
2022-09-02T03:49:21.049Z,68.60
2022-09-02T03:51:47.499Z,68.30
2022-09-02T03:54:13.952Z,68.30
2022-09-02T03:56:40.414Z,68.80
2022-09-02T03:59:06.903Z,68.70
2022-09-02T04:01:34.588Z,69.40
2022-09-02T04:04:01.570Z,70.50
2022-09-02T04:06:32.487Z,69.70
2022-09-02T04:08:59.395Z,68.80
2022-09-02T04:11:25.877Z,69.20
2022-09-02T04:13:52.331Z,67.20
2022-09-02T04:16:18.824Z,69.30
2022-09-02T04:18:45.336Z,68.80
2022-09-02T04:21:11.799Z,71.20
2022-09-02T04:23:38.252Z,70.80
2022-09-02T04:26:04.725Z,68.80
2022-09-02T04:28:31.182Z,68.80
2022-09-02T04:30:57.680Z,69.50
2022-09-02T04:33:24.193Z,69.10
2022-09-02T04:35:50.676Z,70.00
2022-09-02T04:38:17.122Z,69.50
2022-09-02T04:40:43.677Z,69.10
2022-09-02T04:43:10.223Z,70.70
2022-09-02T04:45:36.697Z,70.10
2022-09-02T04:48:03.126Z,69.10
2022-09-02T04:50:29.635Z,69.50
2022-09-02T04:52:56.084Z,68.80
2022-09-02T04:55:22.570Z,69.00
2022-09-02T04:57:49.024Z,68.70
2022-09-02T05:00:15.467Z,69.00
2022-09-02T05:02:41.961Z,68.40
2022-09-02T05:05:08.485Z,68.90
2022-09-02T05:07:36.192Z,68.60
2022-09-02T05:10:02.662Z,68.40
2022-09-02T05:12:29.095Z,69.00
2022-09-02T05:14:55.543Z,68.80
2022-09-02T05:17:21.989Z,69.20
2022-09-02T05:19:48.755Z,70.00
2022-09-02T05:22:15.232Z,68.80
2022-09-02T05:24:41.697Z,70.50
2022-09-02T05:27:08.151Z,69.00
2022-09-02T05:29:34.607Z,69.80
2022-09-02T05:32:01.060Z,68.80
2022-09-02T05:34:27.527Z,68.80
2022-09-02T05:36:54.071Z,69.20
2022-09-02T05:39:20.531Z,69.10
2022-09-02T05:41:46.979Z,69.10
2022-09-02T05:44:13.438Z,69.00
2022-09-02T05:46:40.092Z,69.30
2022-09-02T05:49:06.593Z,68.90
2022-09-02T05:51:33.057Z,69.00
2022-09-02T05:53:59.520Z,68.50
2022-09-02T05:56:25.979Z,70.30
2022-09-02T05:58:52.429Z,69.50
2022-09-02T06:01:18.888Z,68.70
2022-09-02T06:03:45.344Z,68.90
2022-09-02T06:06:11.795Z,68.70
2022-09-02T06:08:38.250Z,70.30
2022-09-02T06:11:04.701Z,68.40
2022-09-02T06:13:31.157Z,69.80
2022-09-02T06:15:57.643Z,68.20
2022-09-02T06:18:24.159Z,68.00
2022-09-02T06:20:52.637Z,68.20
2022-09-02T06:23:19.077Z,68.10
2022-09-02T06:25:45.531Z,68.00
2022-09-02T06:28:11.968Z,67.90
2022-09-02T06:30:38.466Z,67.90
2022-09-02T06:33:05.005Z,68.30
2022-09-02T06:35:31.467Z,68.00
2022-09-02T06:37:57.903Z,67.90
2022-09-02T06:40:24.431Z,68.20
2022-09-02T06:42:50.874Z,68.40
2022-09-02T06:45:17.319Z,68.00
2022-09-02T06:47:43.743Z,67.90
2022-09-02T06:50:10.208Z,68.80
2022-09-02T06:52:36.917Z,68.00
2022-09-02T06:55:03.387Z,68.60
2022-09-02T06:57:34.225Z,68.30
2022-09-02T07:00:02.157Z,68.80
2022-09-02T07:02:28.815Z,68.50
2022-09-02T07:04:57.159Z,69.70
2022-09-02T07:07:24.246Z,68.00
2022-09-02T07:09:50.707Z,68.10
2022-09-02T07:12:17.139Z,68.20
2022-09-02T07:14:43.599Z,67.90
2022-09-02T07:17:10.124Z,67.70
2022-09-02T07:19:36.829Z,68.00
2022-09-02T07:22:03.253Z,67.40
2022-09-02T07:24:29.715Z,67.50
2022-09-02T07:26:56.148Z,67.40
2022-09-02T07:29:22.622Z,67.60
2022-09-02T07:31:49.057Z,67.60
2022-09-02T07:34:15.492Z,67.40
2022-09-02T07:36:41.923Z,67.60
2022-09-02T07:39:08.392Z,68.00
2022-09-02T07:41:34.814Z,68.10
2022-09-02T07:44:01.308Z,68.50
2022-09-02T07:46:27.945Z,68.20
2022-09-02T07:48:54.417Z,68.20
2022-09-02T07:51:20.855Z,67.60
2022-09-02T07:53:47.303Z,67.20
2022-09-02T07:56:13.762Z,67.90
2022-09-02T07:58:40.211Z,67.20
2022-09-02T08:01:06.676Z,67.20
2022-09-02T08:03:33.212Z,67.30
2022-09-02T08:05:59.697Z,67.00
2022-09-02T08:08:26.147Z,67.10
2022-09-02T08:10:52.624Z,67.00
2022-09-02T09:24:27.098Z,66.20
2022-09-02T09:26:53.539Z,66.70
2022-09-02T09:29:19.996Z,66.40
2022-09-02T09:31:46.549Z,66.60
2022-09-02T09:34:13.020Z,66.30
2022-09-02T09:36:39.456Z,66.30
2022-09-02T09:39:05.976Z,66.10
2022-09-02T09:41:32.416Z,67.10
2022-09-02T09:43:58.857Z,66.70
2022-09-02T09:46:25.302Z,66.30
2022-09-02T09:48:51.768Z,66.30
2022-09-02T09:51:18.214Z,66.70
2022-09-02T09:53:44.674Z,66.60
2022-09-02T09:56:11.146Z,66.50
2022-09-02T09:58:37.608Z,66.40
2022-09-02T10:01:04.154Z,67.30
2022-09-02T10:03:32.876Z,68.30
2022-09-02T10:05:59.684Z,68.10
2022-09-02T10:08:26.133Z,68.20
2022-09-02T10:10:52.588Z,67.20
2022-09-02T10:15:45.435Z,68.10
2022-09-02T10:18:11.875Z,67.70
2022-09-02T10:20:44.601Z,68.50
2022-09-02T10:23:19.668Z,67.70
2022-09-02T10:25:46.154Z,67.40
2022-09-02T10:28:12.591Z,67.90
2022-09-02T10:30:39.043Z,67.10
2022-09-02T10:33:05.501Z,68.90
2022-09-02T10:35:31.953Z,67.60
2022-09-02T10:37:58.411Z,67.60
2022-09-02T10:40:24.994Z,70.60
2022-09-02T10:42:51.541Z,69.90
2022-09-02T10:45:17.992Z,68.10
2022-09-02T10:47:44.522Z,66.40
2022-09-02T10:50:11.002Z,68.00
2022-09-02T10:52:37.444Z,67.40
2022-09-02T10:55:03.971Z,68.70
2022-09-02T10:57:30.451Z,69.50
2022-09-02T10:59:56.927Z,67.80
2022-09-02T11:02:23.554Z,68.70
2022-09-02T11:04:50.017Z,69.20
2022-09-02T11:07:19.398Z,68.60
2022-09-02T11:09:46.010Z,68.60
2022-09-02T11:12:12.486Z,68.30
2022-09-02T11:14:38.928Z,68.70
2022-09-02T11:17:05.377Z,67.60
2022-09-02T11:19:39.317Z,67.50
2022-09-02T11:22:05.807Z,67.40
2022-09-02T11:24:32.270Z,67.20
2022-09-02T11:26:58.704Z,67.10
2022-09-02T11:29:25.171Z,67.80
2022-09-02T11:31:51.617Z,67.20
2022-09-02T11:34:18.364Z,67.40
2022-09-02T11:36:44.822Z,67.40
2022-09-02T11:39:11.296Z,67.10
2022-09-02T11:41:38.080Z,68.30
2022-09-02T11:44:04.708Z,68.50
2022-09-02T11:46:31.249Z,67.30
2022-09-02T11:48:57.777Z,67.40
2022-09-02T11:51:24.241Z,67.10
2022-09-02T11:53:54.933Z,66.80
2022-09-02T11:56:22.801Z,67.50
2022-09-02T11:58:50.765Z,68.10
2022-09-02T12:01:17.911Z,67.40
2022-09-02T12:04:40.047Z,68.20
2022-09-02T12:06:42.693Z,67.70
2022-09-02T12:09:09.204Z,68.10
2022-09-02T12:11:35.751Z,68.00
2022-09-02T12:14:04.671Z,66.90
2022-09-02T12:16:32.551Z,66.20
2022-09-02T12:18:59.064Z,68.20
2022-09-02T12:21:25.536Z,69.00
2022-09-02T12:23:52.754Z,68.30
2022-09-02T12:26:19.277Z,67.30
2022-09-02T12:28:45.793Z,67.40
2022-09-02T12:31:12.362Z,69.20
2022-09-02T12:33:38.875Z,68.10
2022-09-02T12:36:05.370Z,67.60
2022-09-02T12:38:31.829Z,67.40
2022-09-02T12:40:58.377Z,67.20
2022-09-02T12:43:24.876Z,67.90
2022-09-02T12:45:51.532Z,67.80
2022-09-02T12:48:18.001Z,67.00
2022-09-02T12:50:56.691Z,67.10
2022-09-02T12:53:23.265Z,67.30
2022-09-02T12:55:49.995Z,67.30
2022-09-02T12:58:16.460Z,67.90
2022-09-02T13:00:42.903Z,67.90
2022-09-02T13:03:09.345Z,67.70
2022-09-02T13:05:35.819Z,67.60
2022-09-02T13:08:02.479Z,68.10
2022-09-02T13:10:29.280Z,67.90
2022-09-02T13:12:55.735Z,68.10
2022-09-02T13:15:23.401Z,67.90
2022-09-02T13:17:50.011Z,67.90
2022-09-02T13:20:16.507Z,68.60
2022-09-02T13:22:42.948Z,69.60
2022-09-02T13:25:09.458Z,70.90
2022-09-02T13:27:35.966Z,68.20
2022-09-02T13:30:02.469Z,68.10
2022-09-02T13:32:28.982Z,69.30
2022-09-02T13:34:55.469Z,69.00
2022-09-02T13:37:22.001Z,68.50
2022-09-02T13:39:48.597Z,68.50
2022-09-02T13:42:15.121Z,68.80
2022-09-02T13:44:44.896Z,68.80
2022-09-02T13:47:13.823Z,66.40
2022-09-02T13:49:43.246Z,70.10
2022-09-02T13:52:11.310Z,68.20
2022-09-02T13:54:41.956Z,68.30
2022-09-02T13:57:08.489Z,68.40
2022-09-02T13:59:37.857Z,71.00
2022-09-02T14:02:04.586Z,69.60
